Аэропорт: им. Гейдара Алиева. Баку

ICAO: UBBB

METAR:
2019-07-24 01:00:00
UBBB 240100Z 32010KT CAVOK 24/20 Q1005 R88/D NOSIG
METAR:
2019-07-23 23:00:00
TAF UBBB 232300Z 2400/2424 32014KT CAVOK TX31/2410Z TN24/2401Z BECMG 2403/2405 36008KT TEMPO 2405/2418 05006KT FEW050CB SCT100